Terminal Aerodrome Forecast
Issued by NWS

Home | Current Version | Previous Version | Graphics & Text | Print | Product List | Glossary On
Versions: 1 2 3 4 5 6 7 8 9 10 11 12 13 14 15 16 17 18 19 20 21 22 23 24 25 26 27 28 29 30 31 32 33 34 35 36 37 38 39 40 41 42 43 44 45 46 47 48 49 50
000
FTUS43 KLOT 291742 CCA
TAFGYY
TAF COR
KGYY 291742Z 2918/3018 19012G18KT P6SM VCSH SCT030 BKN045
     FM292100 21014G21KT P6SM VCTS BKN035CB
     FM292300 21008KT P6SM SCT045 BKN250
     FM300600 21006KT P6SM VCSH BKN045
     FM301000 23008KT 4SM -SHRA SCT020 OVC040
     FM301500 36016G26KT 3SM SHRA OVC005=

USA.gov is the U.S. government's official web portal to all federal, state and local government web resources and services.